Time;durP1;ratioP1;P1;durP2;ratioP2;P2;SDS_P1;SDS_P2;PMS_P1;PMS_P2;Temp;Humidity;BMP_temperature;BMP_pressure;BME280_temperature;BME280_humidity;BME280_pressure;Samples;Min_cycle;Max_cycle;Signal;HPM_P1;HPM_P2
2023/03/13 00:00:19;;;;;;;40.17;9.68;;;8.10;99.90;;;;;;6247002;22;20004;-81
2023/03/13 00:02:45;;;;;;;47.63;10.73;;;8.10;99.90;;;;;;6246407;22;20022;-81
2023/03/13 00:05:11;;;;;;;47.95;10.77;;;8.20;99.90;;;;;;6246665;22;20011;-81
2023/03/13 00:07:37;;;;;;;43.63;10.40;;;8.10;99.90;;;;;;6247094;22;20050;-81
2023/03/13 00:10:04;;;;;;;48.30;10.35;;;8.10;99.90;;;;;;6246597;22;20015;-81
2023/03/13 00:12:30;;;;;;;50.28;11.18;;;8.10;99.90;;;;;;6246975;22;20071;-81
2023/03/13 00:14:55;;;;;;;40.65;10.93;;;8.10;99.90;;;;;;6274198;22;20090;-81
2023/03/13 00:17:21;;;;;;;49.22;10.77;;;8.10;99.90;;;;;;6246488;22;20038;-81
2023/03/13 00:19:47;;;;;;;52.85;11.45;;;8.10;99.90;;;;;;6221076;22;20003;-82
2023/03/13 00:22:12;;;;;;;51.58;10.82;;;8.10;99.90;;;;;;6221136;22;20088;-81
2023/03/13 00:24:38;;;;;;;42.92;10.30;;;8.00;99.90;;;;;;6221285;22;20008;-81
2023/03/13 00:27:04;;;;;;;53.92;12.10;;;8.00;99.90;;;;;;6246895;22;20426;-81
2023/03/13 00:29:32;;;;;;;51.05;10.95;;;8.00;99.90;;;;;;6246524;22;20018;-81
2023/03/13 00:31:58;;;;;;;48.67;11.23;;;8.00;99.90;;;;;;6245704;22;20011;-81
2023/03/13 00:34:26;;;;;;;51.97;10.82;;;8.00;99.90;;;;;;6246785;22;20091;-81
2023/03/13 00:36:53;;;;;;;64.68;12.10;;;8.00;99.90;;;;;;6221238;22;20008;-85
2023/03/13 00:39:19;;;;;;;57.38;10.75;;;8.00;99.90;;;;;;6246147;22;20410;-81
2023/03/13 00:41:44;;;;;;;46.83;10.90;;;7.90;99.90;;;;;;6246324;22;20012;-81
2023/03/13 00:44:10;;;;;;;51.05;11.50;;;7.90;99.90;;;;;;6246336;22;20011;-81
2023/03/13 00:46:36;;;;;;;53.65;10.73;;;8.00;99.90;;;;;;6245826;22;20008;-81
2023/03/13 00:49:02;;;;;;;44.33;11.43;;;8.00;99.90;;;;;;6246314;22;20016;-81
2023/03/13 00:51:28;;;;;;;48.75;10.85;;;8.00;99.90;;;;;;6273996;22;20164;-81
2023/03/13 00:53:55;;;;;;;57.95;11.45;;;8.00;99.90;;;;;;6221071;22;20018;-81
2023/03/13 00:56:21;;;;;;;57.38;11.65;;;8.00;99.90;;;;;;6246384;22;20363;-81
2023/03/13 00:58:48;;;;;;;55.03;10.77;;;8.20;99.90;;;;;;6246307;22;20011;-81
2023/03/13 01:01:25;;;;;;;54.38;10.77;;;8.00;99.90;;;;;;6245677;22;20022;-81
2023/03/13 01:03:54;;;;;;;55.80;11.65;;;7.90;99.90;;;;;;6221033;22;20173;-82
2023/03/13 01:06:22;;;;;;;45.25;10.02;;;7.90;99.90;;;;;;6246322;22;20008;-81
2023/03/13 01:08:48;;;;;;;46.63;10.30;;;7.90;99.90;;;;;;6221080;22;20037;-82
2023/03/13 01:11:17;;;;;;;53.50;10.38;;;7.90;99.90;;;;;;6246150;22;20106;-82
2023/03/13 01:13:43;;;;;;;44.63;10.45;;;8.00;99.90;;;;;;6273342;22;20069;-81
2023/03/13 01:16:11;;;;;;;44.55;10.00;;;7.90;99.90;;;;;;6246120;22;20042;-81
2023/03/13 01:18:38;;;;;;;49.70;10.82;;;7.90;99.90;;;;;;6273830;22;20022;-81
2023/03/13 01:21:04;;;;;;;48.97;11.18;;;7.90;99.90;;;;;;6246275;22;20083;-81
2023/03/13 01:23:30;;;;;;;45.55;10.88;;;7.90;99.90;;;;;;6273759;22;20008;-82
2023/03/13 01:25:56;;;;;;;54.03;10.68;;;7.90;99.90;;;;;;6246106;22;20057;-81
2023/03/13 01:28:23;;;;;;;49.60;11.05;;;7.90;99.90;;;;;;6273063;22;20004;-81
2023/03/13 01:30:49;;;;;;;46.15;10.27;;;7.90;99.90;;;;;;6273250;22;20047;-81
2023/03/13 01:33:17;;;;;;;48.40;10.52;;;7.90;99.90;;;;;;6246015;22;20415;-81
2023/03/13 01:35:43;;;;;;;46.10;10.25;;;7.90;99.90;;;;;;6246193;22;20011;-81
2023/03/13 01:38:09;;;;;;;48.97;10.02;;;7.90;99.90;;;;;;6246296;22;20011;-82
2023/03/13 01:40:46;;;;;;;46.30;9.82;;;8.00;99.90;;;;;;6246024;22;20015;-80
2023/03/13 01:43:28;;;;;;;41.55;10.88;;;8.00;99.90;;;;;;6273128;22;20362;-81
2023/03/13 01:46:17;;;;;;;49.10;11.00;;;8.00;99.90;;;;;;6273113;22;20007;-81
2023/03/13 01:48:52;;;;;;;43.72;10.45;;;8.00;99.90;;;;;;6220672;22;20008;-81
2023/03/13 01:51:36;;;;;;;43.90;10.48;;;8.00;99.90;;;;;;6247179;22;20041;-81
2023/03/13 01:54:05;;;;;;;44.20;10.30;;;8.10;99.90;;;;;;6222638;22;20039;-81
2023/03/13 01:56:36;;;;;;;47.58;11.15;;;8.00;99.90;;;;;;6247779;22;20015;-81
2023/03/13 01:59:03;;;;;;;40.47;9.93;;;8.10;99.90;;;;;;6274919;22;20012;-81
2023/03/13 02:01:29;;;;;;;47.10;10.60;;;8.20;99.90;;;;;;6275274;22;20020;-81
2023/03/13 02:03:56;;;;;;;42.15;9.75;;;8.00;99.90;;;;;;6275315;22;20019;-81
2023/03/13 02:06:22;;;;;;;43.58;9.57;;;8.10;99.90;;;;;;6222684;22;20011;-81
2023/03/13 02:08:53;;;;;;;41.72;11.63;;;8.10;99.90;;;;;;6247770;22;20012;-81
2023/03/13 02:11:42;;;;;;;41.55;9.55;;;8.10;99.90;;;;;;6248271;22;20023;-81
2023/03/13 02:14:08;;;;;;;43.22;9.82;;;8.10;99.90;;;;;;6247761;22;20015;-81
2023/03/13 02:16:34;;;;;;;44.65;10.45;;;8.20;99.90;;;;;;6222353;22;20018;-81
2023/03/13 02:19:09;;;;;;;46.92;10.68;;;8.40;99.90;;;;;;6222416;22;20091;-81
2023/03/13 02:22:04;;;;;;;46.28;10.50;;;8.20;99.90;;;;;;6275179;22;20018;-81
2023/03/13 02:24:42;;;;;;;51.17;11.15;;;8.20;99.90;;;;;;6222523;22;20018;-81
2023/03/13 02:27:08;;;;;;;45.97;11.55;;;8.10;99.90;;;;;;6221712;22;20004;-82
2023/03/13 02:29:34;;;;;;;50.40;11.63;;;8.10;99.90;;;;;;6247741;22;20058;-81
2023/03/13 02:31:59;;;;;;;43.72;11.07;;;8.10;99.90;;;;;;6274831;22;20007;-82
2023/03/13 02:34:30;;;;;;;42.53;11.93;;;8.50;99.90;;;;;;6247574;22;20454;-82
2023/03/13 02:36:58;;;;;;;51.42;13.13;;;8.10;99.90;;;;;;6247802;22;20400;-82
2023/03/13 02:39:25;;;;;;;41.70;11.55;;;8.20;99.90;;;;;;6247485;22;20018;-82
2023/03/13 02:41:51;;;;;;;35.92;11.20;;;8.20;99.90;;;;;;6246766;22;20127;-82
2023/03/13 02:44:17;;;;;;;36.72;10.45;;;8.20;99.90;;;;;;6222128;22;20405;-81
2023/03/13 02:46:49;;;;;;;38.70;11.20;;;8.20;99.90;;;;;;6247943;22;20039;-82
2023/03/13 02:49:26;;;;;;;42.08;11.20;;;8.50;99.90;;;;;;6247868;22;20074;-82
2023/03/13 02:51:59;;;;;;;34.50;11.63;;;8.20;99.90;;;;;;6275148;22;20261;-82
2023/03/13 02:54:34;;;;;;;30.42;10.77;;;8.30;99.90;;;;;;6275078;22;20100;-82
2023/03/13 02:57:02;;;;;;;29.35;10.38;;;8.30;99.90;;;;;;6246872;22;20007;-82
2023/03/13 02:59:28;;;;;;;29.60;10.07;;;8.30;99.90;;;;;;6247640;22;20018;-82
2023/03/13 03:01:54;;;;;;;29.40;9.32;;;8.50;99.90;;;;;;6221863;22;20095;-82
2023/03/13 03:04:23;;;;;;;28.88;9.18;;;8.40;99.90;;;;;;6274814;22;20027;-82
2023/03/13 03:06:50;;;;;;;29.20;10.48;;;8.30;99.90;;;;;;6275247;22;20058;-82
2023/03/13 03:09:16;;;;;;;22.30;9.20;;;8.40;99.90;;;;;;6247279;22;20018;-81
2023/03/13 03:11:42;;;;;;;22.35;8.82;;;8.40;99.90;;;;;;6274000;22;20026;-82
2023/03/13 03:14:09;;;;;;;26.48;8.98;;;8.40;99.90;;;;;;6274384;22;20008;-82
2023/03/13 03:16:35;;;;;;;17.98;8.05;;;8.40;99.90;;;;;;6247363;22;20016;-82
2023/03/13 03:19:01;;;;;;;18.40;8.35;;;8.40;99.90;;;;;;6221979;22;20012;-82
2023/03/13 03:21:26;;;;;;;22.60;8.88;;;8.40;99.90;;;;;;6247481;22;20106;-82
2023/03/13 03:23:52;;;;;;;16.60;7.38;;;8.50;99.90;;;;;;6247249;22;20015;-82
2023/03/13 03:26:17;;;;;;;22.67;7.82;;;8.50;99.90;;;;;;6246498;22;20008;-82
2023/03/13 03:28:43;;;;;;;16.65;7.65;;;8.80;99.90;;;;;;6247093;22;20016;-82
2023/03/13 03:31:11;;;;;;;20.35;8.63;;;8.70;99.90;;;;;;6247086;22;20287;-81
2023/03/13 03:33:37;;;;;;;18.27;8.45;;;8.50;99.90;;;;;;6247614;22;20095;-81
2023/03/13 03:36:09;;;;;;;18.75;8.68;;;8.50;99.90;;;;;;6221964;22;20023;-81
2023/03/13 03:38:35;;;;;;;20.38;8.20;;;8.60;99.90;;;;;;6274676;22;20018;-81
2023/03/13 03:41:01;;;;;;;17.30;8.43;;;8.60;99.90;;;;;;6221143;22;20498;-81
2023/03/13 03:43:26;;;;;;;16.08;8.10;;;8.60;99.90;;;;;;6274368;22;20016;-81
2023/03/13 03:45:52;;;;;;;16.60;7.78;;;8.60;99.90;;;;;;6221566;22;20015;-81
2023/03/13 03:48:18;;;;;;;19.48;8.85;;;9.00;99.90;;;;;;6221690;22;20016;-81
2023/03/13 03:50:43;;;;;;;14.45;7.80;;;8.70;99.90;;;;;;6247464;22;20012;-81
2023/03/13 03:53:09;;;;;;;14.60;7.97;;;8.90;99.90;;;;;;6274467;22;20011;-81
2023/03/13 03:55:35;;;;;;;16.40;7.60;;;8.70;99.90;;;;;;6246934;22;20042;-81
2023/03/13 03:58:01;;;;;;;17.10;8.43;;;8.70;99.90;;;;;;6221683;22;20493;-81
2023/03/13 04:00:27;;;;;;;16.73;8.38;;;8.80;99.90;;;;;;6274346;22;20008;-81
2023/03/13 04:02:53;;;;;;;13.63;8.23;;;8.80;99.90;;;;;;6246901;22;20016;-81
2023/03/13 04:05:19;;;;;;;19.10;8.90;;;8.80;99.90;;;;;;6247252;22;20004;-81
2023/03/13 04:07:44;;;;;;;17.98;8.70;;;8.80;99.90;;;;;;6221279;22;20083;-81
2023/03/13 04:10:10;;;;;;;12.75;8.35;;;8.90;99.90;;;;;;6247031;22;20012;-81
2023/03/13 04:12:36;;;;;;;14.93;8.27;;;8.90;99.90;;;;;;6274391;22;20022;-81
2023/03/13 04:15:02;;;;;;;14.48;8.95;;;8.90;99.90;;;;;;6246379;22;20419;-81
2023/03/13 04:17:28;;;;;;;11.90;8.13;;;8.90;99.90;;;;;;6221461;22;20342;-81
2023/03/13 04:19:53;;;;;;;13.90;8.15;;;8.90;99.90;;;;;;6246629;22;20015;-81
2023/03/13 04:22:19;;;;;;;13.77;8.43;;;9.00;99.90;;;;;;6246324;22;20119;-81
2023/03/13 04:24:45;;;;;;;12.25;8.32;;;9.00;99.90;;;;;;6246704;22;20018;-81
2023/03/13 04:27:10;;;;;;;14.52;9.00;;;9.10;99.90;;;;;;6247201;22;20007;-81
2023/03/13 04:29:36;;;;;;;11.60;8.52;;;9.10;99.90;;;;;;6246461;22;20012;-81
2023/03/13 04:32:02;;;;;;;14.00;9.07;;;9.20;99.90;;;;;;6221182;22;20018;-81
2023/03/13 04:34:27;;;;;;;14.65;9.55;;;9.30;99.90;;;;;;6274066;22;20031;-81
2023/03/13 04:36:54;;;;;;;15.05;9.88;;;9.40;99.90;;;;;;6273620;22;20015;-81
2023/03/13 04:39:24;;;;;;;13.10;9.13;;;9.40;99.90;;;;;;6246385;22;20015;-81
2023/03/13 04:41:53;;;;;;;14.82;9.90;;;9.50;99.90;;;;;;6273906;22;20551;-81
2023/03/13 04:44:19;;;;;;;17.35;10.43;;;9.50;99.90;;;;;;6246623;22;20012;-81
2023/03/13 04:46:45;;;;;;;13.48;9.90;;;9.50;99.90;;;;;;6246949;22;20008;-81
2023/03/13 04:49:12;;;;;;;13.57;10.02;;;9.60;99.90;;;;;;6221162;22;20016;-82
2023/03/13 04:51:38;;;;;;;17.88;11.25;;;9.80;99.90;;;;;;6246486;22;20011;-81
2023/03/13 04:54:03;;;;;;;18.50;12.65;;;9.80;99.90;;;;;;6246330;22;20019;-81
2023/03/13 04:56:29;;;;;;;15.63;12.05;;;9.80;99.90;;;;;;6246435;22;20016;-81
2023/03/13 04:58:54;;;;;;;22.08;13.43;;;9.90;99.90;;;;;;6246424;22;20004;-81
2023/03/13 05:01:20;;;;;;;21.20;13.70;;;9.90;99.90;;;;;;6246400;22;20069;-81
2023/03/13 05:03:46;;;;;;;17.08;12.57;;;9.90;99.90;;;;;;6274059;22;20016;-81
2023/03/13 05:06:12;;;;;;;24.13;14.32;;;9.90;99.90;;;;;;6272999;22;20312;-81
2023/03/13 05:08:37;;;;;;;18.73;13.35;;;9.90;99.90;;;;;;6247002;22;20008;-82
2023/03/13 05:11:04;;;;;;;22.23;13.23;;;10.00;99.90;;;;;;6273382;22;20023;-82
2023/03/13 05:13:30;;;;;;;19.35;13.13;;;10.00;99.90;;;;;;6246847;22;20370;-82
2023/03/13 05:15:55;;;;;;;16.75;12.90;;;10.20;99.90;;;;;;6246265;22;20034;-81
2023/03/13 05:18:21;;;;;;;19.10;13.25;;;10.00;99.90;;;;;;6273100;22;20024;-81
2023/03/13 05:20:47;;;;;;;20.23;13.13;;;10.10;99.90;;;;;;6220392;22;20014;-81
2023/03/13 05:23:13;;;;;;;23.33;15.27;;;10.10;99.90;;;;;;6246607;22;20065;-81
2023/03/13 05:25:39;;;;;;;19.83;14.50;;;10.20;99.90;;;;;;6222003;22;20012;-81
2023/03/13 05:28:04;;;;;;;20.95;14.68;;;10.30;99.90;;;;;;6249785;22;20086;-81
2023/03/13 05:30:30;;;;;;;24.17;16.30;;;10.30;99.90;;;;;;6249732;22;20061;-82
2023/03/13 05:32:55;;;;;;;27.48;16.55;;;10.40;99.90;;;;;;6249460;22;20082;-82
2023/03/13 05:35:21;;;;;;;24.48;17.02;;;10.40;99.90;;;;;;6223988;22;20198;-81
2023/03/13 05:37:47;;;;;;;27.00;17.35;;;10.40;99.90;;;;;;6249835;22;20008;-82
2023/03/13 05:40:13;;;;;;;26.75;17.08;;;10.60;99.90;;;;;;6249511;22;20368;-81
2023/03/13 05:42:39;;;;;;;21.70;16.10;;;10.50;99.90;;;;;;6277216;22;20043;-82
2023/03/13 05:45:05;;;;;;;23.17;15.02;;;10.50;99.90;;;;;;6249646;22;20012;-81
2023/03/13 05:47:31;;;;;;;20.63;14.63;;;10.50;99.90;;;;;;6250059;22;20008;-81
2023/03/13 05:49:56;;;;;;;23.60;15.57;;;10.70;99.90;;;;;;6249222;22;20011;-81
2023/03/13 05:52:22;;;;;;;21.25;14.05;;;10.60;99.90;;;;;;6277072;22;20062;-81
2023/03/13 05:54:48;;;;;;;20.83;13.57;;;10.60;99.90;;;;;;6250025;22;20008;-81
2023/03/13 05:57:13;;;;;;;20.33;12.02;;;10.60;99.90;;;;;;6276810;22;20060;-81
2023/03/13 05:59:39;;;;;;;19.80;12.60;;;10.70;99.90;;;;;;6249498;22;20339;-81
2023/03/13 06:02:04;;;;;;;17.45;9.73;;;10.70;99.90;;;;;;6224226;22;20094;-81
2023/03/13 06:04:30;;;;;;;13.18;10.25;;;10.70;99.90;;;;;;6276173;22;20015;-81
2023/03/13 06:06:56;;;;;;;16.65;9.80;;;10.70;99.90;;;;;;6249729;22;20003;-81
2023/03/13 06:09:21;;;;;;;14.93;9.95;;;10.80;99.90;;;;;;6224384;22;20011;-81
2023/03/13 06:11:47;;;;;;;16.63;10.10;;;10.80;99.90;;;;;;6249484;22;20012;-82
2023/03/13 06:14:13;;;;;;;21.92;11.52;;;10.90;99.90;;;;;;6250168;22;20007;-82
2023/03/13 06:16:39;;;;;;;17.88;11.23;;;10.90;99.90;;;;;;6276613;22;20095;-82
2023/03/13 06:19:04;;;;;;;18.80;11.35;;;10.90;99.90;;;;;;6223739;22;20016;-82
2023/03/13 06:21:30;;;;;;;21.42;13.05;;;10.90;99.90;;;;;;6277035;22;20059;-82
2023/03/13 06:23:56;;;;;;;18.33;12.75;;;10.90;99.90;;;;;;6250099;22;20012;-81
2023/03/13 06:26:23;;;;;;;20.95;12.32;;;10.90;99.90;;;;;;6249620;22;20379;-81
2023/03/13 06:28:49;;;;;;;19.80;11.82;;;10.90;99.90;;;;;;6224160;22;20035;-82
2023/03/13 06:31:15;;;;;;;20.65;11.88;;;11.20;99.90;;;;;;6249590;22;20015;-81
2023/03/13 06:33:40;;;;;;;22.17;11.55;;;10.90;99.90;;;;;;6223717;22;20415;-82
2023/03/13 06:36:06;;;;;;;16.83;10.35;;;10.90;99.90;;;;;;6276442;22;20023;-82
2023/03/13 06:38:32;;;;;;;16.42;10.38;;;11.00;99.90;;;;;;6222009;22;20008;-82
2023/03/13 06:40:58;;;;;;;21.35;10.55;;;11.00;99.90;;;;;;6248121;22;20016;-82
2023/03/13 06:43:23;;;;;;;14.02;10.38;;;11.00;99.90;;;;;;6248100;22;20007;-82
2023/03/13 06:45:49;;;;;;;12.90;9.00;;;11.10;99.90;;;;;;6247257;22;20043;-81
2023/03/13 06:48:15;;;;;;;23.58;10.93;;;11.10;99.90;;;;;;6274281;22;20091;-81
2023/03/13 06:50:41;;;;;;;19.45;9.60;;;11.10;99.90;;;;;;6247896;22;20011;-82
2023/03/13 06:53:12;;;;;;;18.25;10.50;;;11.00;99.90;;;;;;6222297;22;20386;-82
2023/03/13 06:55:37;;;;;;;19.42;10.35;;;11.10;99.90;;;;;;6222202;22;20079;-81
2023/03/13 06:58:03;;;;;;;21.27;10.95;;;11.10;99.90;;;;;;6222195;22;20096;-82
2023/03/13 07:00:28;;;;;;;21.50;10.40;;;11.10;99.90;;;;;;6247400;22;20011;-82
2023/03/13 07:02:54;;;;;;;19.00;10.10;;;11.10;99.90;;;;;;6246785;22;20090;-81
2023/03/13 07:05:20;;;;;;;22.45;11.75;;;11.10;99.90;;;;;;6247541;22;20065;-82
2023/03/13 07:07:45;;;;;;;28.42;11.38;;;11.10;99.90;;;;;;6274903;22;20015;-81
2023/03/13 07:10:11;;;;;;;21.42;10.75;;;11.10;99.90;;;;;;6247674;22;20023;-81
2023/03/13 07:12:37;;;;;;;20.30;10.95;;;11.10;99.90;;;;;;6221943;22;20053;-81
2023/03/13 07:15:04;;;;;;;21.00;10.32;;;11.10;99.90;;;;;;6247291;22;20101;-81
2023/03/13 07:17:29;;;;;;;25.27;10.43;;;11.10;99.90;;;;;;6221028;22;20014;-81
2023/03/13 07:19:55;;;;;;;23.60;9.95;;;11.20;99.90;;;;;;6247112;22;20327;-81
2023/03/13 07:22:20;;;;;;;21.45;9.77;;;11.10;99.90;;;;;;6247580;22;20400;-81
2023/03/13 07:24:47;;;;;;;19.48;10.23;;;11.20;99.90;;;;;;6247143;22;20004;-81
2023/03/13 07:27:12;;;;;;;22.38;9.63;;;11.10;99.90;;;;;;6247010;22;20016;-81
2023/03/13 07:29:38;;;;;;;17.77;8.98;;;11.10;99.90;;;;;;6246980;22;20015;-81
2023/03/13 07:32:04;;;;;;;21.92;9.70;;;11.20;99.90;;;;;;6220922;22;20011;-81
2023/03/13 07:34:30;;;;;;;22.52;9.55;;;11.20;99.90;;;;;;6246926;22;20315;-82
2023/03/13 07:36:55;;;;;;;23.38;9.43;;;11.20;99.90;;;;;;6221636;22;20071;-81
2023/03/13 07:39:21;;;;;;;20.02;9.25;;;11.40;99.90;;;;;;6221620;22;20008;-81
2023/03/13 07:41:46;;;;;;;18.50;9.23;;;11.20;99.90;;;;;;6274574;22;20030;-81
2023/03/13 07:44:12;;;;;;;17.92;8.48;;;11.20;99.90;;;;;;6247371;22;20022;-81
2023/03/13 07:46:38;;;;;;;27.20;9.65;;;11.30;99.90;;;;;;6273814;22;20038;-81
2023/03/13 07:49:03;;;;;;;23.40;10.02;;;11.20;99.90;;;;;;6221468;22;20027;-82
2023/03/13 07:51:29;;;;;;;23.05;9.23;;;11.30;99.90;;;;;;6246944;22;20027;-81
2023/03/13 07:53:54;;;;;;;20.48;9.23;;;11.20;99.90;;;;;;6246861;22;20012;-81
2023/03/13 07:56:22;;;;;;;19.25;9.43;;;11.30;99.90;;;;;;6274401;22;20465;-81
2023/03/13 07:58:47;;;;;;;22.60;10.40;;;11.20;99.90;;;;;;6221696;22;20016;-81
2023/03/13 08:01:20;;;;;;;22.02;9.02;;;11.30;99.90;;;;;;6246135;22;20273;-82
2023/03/13 08:03:49;;;;;;;20.63;8.70;;;11.20;99.90;;;;;;6274040;22;20445;-82
2023/03/13 08:06:17;;;;;;;17.83;9.10;;;11.20;99.90;;;;;;6247054;22;20344;-81
2023/03/13 08:08:42;;;;;;;14.70;7.82;;;11.20;99.90;;;;;;6221613;22;20007;-82
2023/03/13 08:11:11;;;;;;;17.13;8.30;;;11.20;99.90;;;;;;6246935;22;20320;-82
2023/03/13 08:13:37;;;;;;;15.73;7.85;;;11.30;99.90;;;;;;6247147;22;20016;-82
2023/03/13 08:16:15;;;;;;;18.15;8.27;;;11.20;99.90;;;;;;6221230;22;20114;-82
2023/03/13 08:18:43;;;;;;;16.33;8.07;;;11.20;99.90;;;;;;6274430;22;20069;-82
2023/03/13 08:21:12;;;;;;;10.88;6.68;;;11.20;99.90;;;;;;6274059;22;20031;-81
2023/03/13 08:23:38;;;;;;;11.93;6.35;;;11.20;99.90;;;;;;6274028;22;20016;-82
2023/03/13 08:26:08;;;;;;;10.13;4.35;;;11.30;99.90;;;;;;6274247;22;20011;-82
2023/03/13 08:28:35;;;;;;;7.05;3.83;;;11.30;99.90;;;;;;6247006;22;20082;-82
2023/03/13 08:31:29;;;;;;;7.47;3.80;;;11.40;99.90;;;;;;6245835;22;20015;-81
2023/03/13 08:33:57;;;;;;;8.70;3.75;;;11.40;99.90;;;;;;6269413;22;20050;-82
2023/03/13 08:36:33;;;;;;;7.40;3.40;;;11.50;99.90;;;;;;6246535;22;20047;-81
2023/03/13 08:39:04;;;;;;;6.43;3.30;;;11.70;99.90;;;;;;6246973;22;20046;-81
2023/03/13 08:41:34;;;;;;;6.65;3.10;;;11.80;99.90;;;;;;6246702;22;20022;-81
2023/03/13 08:44:01;;;;;;;7.68;3.40;;;11.90;99.90;;;;;;6273930;22;20030;-81
2023/03/13 08:46:29;;;;;;;7.00;3.25;;;12.00;99.90;;;;;;6247084;22;20007;-82
2023/03/13 08:48:55;;;;;;;6.43;2.42;;;12.10;99.90;;;;;;6246410;22;20026;-81
2023/03/13 08:51:26;;;;;;;7.70;2.58;;;12.20;99.90;;;;;;6273927;22;20012;-81
2023/03/13 08:53:52;;;;;;;8.73;3.00;;;12.20;99.90;;;;;;6274225;22;20024;-82
2023/03/13 08:56:20;;;;;;;7.68;2.40;;;12.30;99.90;;;;;;6246471;22;20090;-81
2023/03/13 08:58:50;;;;;;;7.07;2.35;;;12.30;99.90;;;;;;6246020;22;20042;-81
2023/03/13 09:01:16;;;;;;;5.72;2.15;;;12.30;99.90;;;;;;6220987;22;20446;-82
2023/03/13 09:03:42;;;;;;;6.57;2.13;;;12.40;99.90;;;;;;6246535;22;20023;-81
2023/03/13 09:06:09;;;;;;;9.55;2.58;;;12.30;99.90;;;;;;6246240;22;20007;-81
2023/03/13 09:08:36;;;;;;;6.75;2.33;;;12.30;99.90;;;;;;6221419;22;20065;-82
2023/03/13 09:11:07;;;;;;;7.43;2.63;;;12.40;99.90;;;;;;6246297;22;20019;-81
2023/03/13 09:13:36;;;;;;;6.03;2.53;;;12.50;99.90;;;;;;6245972;22;20020;-81
2023/03/13 09:16:07;;;;;;;7.40;2.50;;;12.60;99.90;;;;;;6221095;22;20077;-82
2023/03/13 09:18:33;;;;;;;5.53;2.30;;;12.60;99.90;;;;;;6246429;22;20019;-82
2023/03/13 09:20:59;;;;;;;6.97;2.80;;;12.50;99.90;;;;;;6246017;22;20011;-81
2023/03/13 09:23:25;;;;;;;10.52;2.97;;;12.50;99.90;;;;;;6246798;22;20411;-82
2023/03/13 09:25:52;;;;;;;9.85;3.30;;;12.40;99.90;;;;;;6246311;22;20256;-82
2023/03/13 09:28:18;;;;;;;10.02;3.28;;;12.50;99.90;;;;;;6220381;22;20014;-81
2023/03/13 09:30:44;;;;;;;10.02;3.20;;;12.50;99.90;;;;;;6245963;22;20047;-82
2023/03/13 09:33:09;;;;;;;12.82;3.63;;;12.50;99.90;;;;;;6211584;23;20016;-82
2023/03/13 09:35:38;;;;;;;12.77;3.72;;;12.50;99.90;;;;;;6185627;23;20075;-82
2023/03/13 09:38:04;;;;;;;13.02;3.28;;;12.50;99.90;;;;;;6213115;23;20009;-82
2023/03/13 09:40:35;;;;;;;8.65;3.17;;;12.50;99.90;;;;;;6211016;23;20016;-81
2023/03/13 09:43:01;;;;;;;11.50;3.08;;;12.40;99.90;;;;;;6210292;23;20090;-81
2023/03/13 09:45:33;;;;;;;8.88;3.08;;;12.40;99.90;;;;;;6210777;23;20020;-82
2023/03/13 09:48:09;;;;;;;8.98;3.15;;;12.40;99.90;;;;;;6210657;23;20013;-81
2023/03/13 09:50:42;;;;;;;8.13;3.22;;;12.50;99.90;;;;;;6210851;23;20008;-82
2023/03/13 09:53:43;;;;;;;8.68;3.10;;;12.50;99.90;;;;;;6210878;23;20399;-81
2023/03/13 09:56:18;;;;;;;7.82;3.05;;;12.60;99.90;;;;;;6210028;23;20439;-81
2023/03/13 09:58:55;;;;;;;11.18;3.20;;;12.80;99.90;;;;;;6211284;23;20008;-82
2023/03/13 10:01:27;;;;;;;11.68;3.88;;;12.80;99.90;;;;;;6211008;23;20070;-81
2023/03/13 10:04:10;;;;;;;13.15;4.22;;;12.90;99.90;;;;;;6212739;23;20013;-81
2023/03/13 10:06:41;;;;;;;10.50;3.00;;;12.90;99.90;;;;;;6210734;23;20016;-81
2023/03/13 10:09:21;;;;;;;13.63;4.28;;;12.90;99.90;;;;;;6212868;23;20332;-81
2023/03/13 10:12:22;;;;;;;14.75;3.78;;;12.90;99.90;;;;;;6210207;23;20017;-82
2023/03/13 10:14:53;;;;;;;15.70;3.95;;;13.00;99.90;;;;;;6201061;23;20110;-81
2023/03/13 10:17:46;;;;;;;14.93;4.18;;;13.20;99.90;;;;;;6214768;23;20052;-81
2023/03/13 10:20:32;;;;;;;10.75;3.35;;;13.40;99.90;;;;;;6208447;23;20021;-81
2023/03/13 10:23:17;;;;;;;15.30;3.80;;;13.40;99.90;;;;;;6214703;23;20059;-81
2023/03/13 10:25:43;;;;;;;14.90;3.85;;;13.40;99.90;;;;;;6212060;23;20020;-81
2023/03/13 10:28:11;;;;;;;15.73;4.13;;;13.50;99.90;;;;;;6212448;23;20017;-81
2023/03/13 10:30:39;;;;;;;15.55;3.70;;;13.60;99.90;;;;;;6214157;23;20020;-81
2023/03/13 10:33:11;;;;;;;17.15;4.10;;;13.50;99.90;;;;;;6270614;22;20115;-81
2023/03/13 10:35:42;;;;;;;15.80;3.75;;;13.60;99.90;;;;;;6247706;22;20011;-81
2023/03/13 10:38:20;;;;;;;15.65;4.50;;;13.70;99.90;;;;;;6222493;22;20082;-81
2023/03/13 10:41:17;;;;;;;13.15;3.85;;;13.70;99.90;;;;;;6247039;22;20022;-81
2023/03/13 10:43:51;;;;;;;16.85;4.07;;;13.70;99.90;;;;;;6247806;22;20074;-82
2023/03/13 10:46:29;;;;;;;13.98;3.40;;;13.80;99.90;;;;;;6275278;22;20084;-81
2023/03/13 10:48:58;;;;;;;14.98;4.07;;;13.80;99.90;;;;;;6222285;22;20008;-81
2023/03/13 10:51:40;;;;;;;16.20;3.78;;;13.80;99.90;;;;;;6247751;22;20007;-82
2023/03/13 10:54:25;;;;;;;14.45;4.28;;;13.80;99.90;;;;;;6247058;22;20094;-81
2023/03/13 10:57:06;;;;;;;20.75;4.78;;;13.80;99.90;;;;;;6222219;22;20069;-81
2023/03/13 10:59:37;;;;;;;15.10;4.25;;;13.90;99.90;;;;;;6196687;22;20395;-81
2023/03/13 11:02:15;;;;;;;17.40;4.15;;;14.00;99.90;;;;;;6274966;22;20050;-82
2023/03/13 11:04:41;;;;;;;18.38;4.28;;;14.00;99.90;;;;;;6247574;22;20054;-82
2023/03/13 11:07:18;;;;;;;19.73;4.65;;;14.00;99.90;;;;;;6247455;22;20059;-82
2023/03/13 11:09:57;;;;;;;20.90;4.05;;;13.90;99.90;;;;;;6247584;22;20015;-82
2023/03/13 11:12:22;;;;;;;17.38;4.65;;;13.90;99.90;;;;;;6247528;22;20015;-82
2023/03/13 11:14:56;;;;;;;20.38;4.30;;;13.80;99.90;;;;;;6247560;22;20287;-82
2023/03/13 11:17:40;;;;;;;20.75;4.25;;;13.80;99.90;;;;;;6275173;22;20015;-78
2023/03/13 11:20:25;;;;;;;16.20;4.20;;;13.90;99.90;;;;;;6274845;22;20043;-82
2023/03/13 11:23:19;;;;;;;14.48;4.00;;;13.90;99.90;;;;;;6274367;22;20022;-81
2023/03/13 11:26:19;;;;;;;18.73;5.00;;;14.00;99.90;;;;;;6247207;22;20012;-82
2023/03/13 11:28:50;;;;;;;16.02;3.50;;;14.00;99.90;;;;;;6274995;22;20007;-82
2023/03/13 11:31:38;;;;;;;11.05;3.40;;;14.00;99.90;;;;;;6221818;22;20027;-81
2023/03/13 11:34:25;;;;;;;13.98;3.50;;;14.00;99.90;;;;;;6274874;22;20137;-81
2023/03/13 11:37:21;;;;;;;13.75;3.53;;;14.00;99.90;;;;;;6247336;22;20344;-81
2023/03/13 11:40:00;;;;;;;11.20;3.20;;;14.00;99.90;;;;;;6243194;22;20011;-81
2023/03/13 11:43:06;;;;;;;12.20;3.10;;;14.00;99.90;;;;;;6222030;22;20465;-81
2023/03/13 11:45:44;;;;;;;12.60;3.55;;;14.10;99.90;;;;;;6245104;22;20022;-81
2023/03/13 11:48:40;;;;;;;9.95;3.08;;;14.10;99.90;;;;;;6274684;22;20015;-81
2023/03/13 11:51:25;;;;;;;13.02;2.80;;;14.20;99.90;;;;;;6274586;22;20011;-82
2023/03/13 11:54:13;;;;;;;9.48;2.50;;;14.30;99.90;;;;;;6274105;22;20444;-82
2023/03/13 11:56:38;;;;;;;8.20;2.80;;;14.40;99.90;;;;;;6274719;22;20023;-81
2023/03/13 11:59:07;;;;;;;7.45;2.55;;;14.50;99.90;;;;;;6246894;22;20020;-82
2023/03/13 12:01:39;;;;;;;10.20;2.85;;;14.50;99.90;;;;;;6274431;22;20016;-81
2023/03/13 12:04:16;;;;;;;8.93;2.78;;;14.60;99.90;;;;;;6247064;22;20027;-81
2023/03/13 12:07:23;;;;;;;12.95;2.75;;;14.60;99.90;;;;;;6273848;22;20394;-81
2023/03/13 12:10:01;;;;;;;10.68;2.80;;;14.70;99.90;;;;;;6120958;23;20010;-81
2023/03/13 12:12:43;;;;;;;11.52;2.92;;;14.60;99.90;;;;;;6096382;23;20014;-82
2023/03/13 12:15:25;;;;;;;9.75;2.78;;;14.70;99.90;;;;;;6121026;23;20409;-81
2023/03/13 12:17:59;;;;;;;12.50;2.95;;;14.70;99.90;;;;;;6121183;23;20021;-82
2023/03/13 12:20:39;;;;;;;16.83;3.15;;;14.70;99.90;;;;;;6096399;23;20018;-82
2023/03/13 12:23:18;;;;;;;16.27;3.30;;;14.70;99.90;;;;;;6096500;23;20021;-81
2023/03/13 12:26:03;;;;;;;13.43;3.25;;;14.80;99.90;;;;;;6072479;23;20014;-81
2023/03/13 12:28:53;;;;;;;13.70;3.50;;;14.70;99.90;;;;;;6096305;23;20010;-81
2023/03/13 12:31:27;;;;;;;12.32;2.95;;;14.80;99.90;;;;;;6096296;23;20196;-82
2023/03/13 12:34:32;;;;;;;12.77;3.20;;;14.80;99.90;;;;;;6096676;23;20723;-81
2023/03/13 12:37:14;;;;;;;13.73;3.58;;;14.80;99.90;;;;;;6095754;23;20029;-82
2023/03/13 12:39:50;;;;;;;11.40;2.97;;;14.90;99.90;;;;;;6097011;23;20014;-82
2023/03/13 12:42:53;;;;;;;12.88;3.70;;;15.00;99.90;;;;;;6096450;23;20046;-81
2023/03/13 12:45:23;;;;;;;14.10;4.22;;;15.10;99.90;;;;;;6243254;22;20062;-82
2023/03/13 12:48:23;;;;;;;14.90;4.32;;;15.00;99.90;;;;;;6246845;22;20011;-81
2023/03/13 12:51:25;;;;;;;12.30;3.30;;;15.00;99.90;;;;;;6245992;22;20046;-81
2023/03/13 12:54:30;;;;;;;15.10;3.60;;;14.80;99.90;;;;;;6274233;22;20355;-81